Bellvale, New York
Current Conditions -  °F | °C
As of 10:53 PM on Tuesday 27 Jan 2015 (Local Time) from KFWN Reporting Station
Clear Clear  
Wind Chill:   Ceiling: Unl
Heat Index: 16°   Visibility: 10mi
Dew Point:   Wind: 6mph
Humidity: 52%   Direction: NA
Pressure: 29.84"   Gusts: NA
Location:  41.25°N, 74.31°W
Report Text: KFWN 280353Z AUTO VRB05KT 10SM CLR M09/M17 A2984 RMK AO2 SLP110 T10891172
Loading
Personal Weather Stations






























Interactive Weather Map New forecast layout! Learn more

10-Day Weather Forecast

Advertisements
Track Severe Weather on mobile